sensor_id;sensor_type;location;lat;lon;timestamp;P1;durP1;ratioP1;P2;durP2;ratioP2
70335;SDS011;57756;47.408;18.940;2022-08-05T00:01:12;5.28;;;2.65;;
70335;SDS011;57756;47.408;18.940;2022-08-05T00:03:41;4.88;;;2.22;;
70335;SDS011;57756;47.408;18.940;2022-08-05T00:06:09;6.40;;;2.67;;
70335;SDS011;57756;47.408;18.940;2022-08-05T00:08:35;4.17;;;2.43;;
70335;SDS011;57756;47.408;18.940;2022-08-05T00:11:03;6.00;;;2.53;;
70335;SDS011;57756;47.408;18.940;2022-08-05T00:13:31;3.50;;;2.03;;
70335;SDS011;57756;47.408;18.940;2022-08-05T00:15:57;3.92;;;2.13;;
70335;SDS011;57756;47.408;18.940;2022-08-05T00:18:23;4.23;;;2.40;;
70335;SDS011;57756;47.408;18.940;2022-08-05T00:20:49;4.90;;;2.30;;
70335;SDS011;57756;47.408;18.940;2022-08-05T00:23:15;4.83;;;2.00;;
70335;SDS011;57756;47.408;18.940;2022-08-05T00:25:41;6.40;;;2.28;;
70335;SDS011;57756;47.408;18.940;2022-08-05T00:28:06;7.27;;;2.60;;
70335;SDS011;57756;47.408;18.940;2022-08-05T00:30:32;4.15;;;2.25;;
70335;SDS011;57756;47.408;18.940;2022-08-05T00:32:57;4.10;;;2.30;;
70335;SDS011;57756;47.408;18.940;2022-08-05T00:35:23;3.03;;;1.83;;
70335;SDS011;57756;47.408;18.940;2022-08-05T00:37:48;4.90;;;2.20;;
70335;SDS011;57756;47.408;18.940;2022-08-05T00:40:14;4.80;;;2.20;;
70335;SDS011;57756;47.408;18.940;2022-08-05T00:42:39;5.10;;;2.10;;
70335;SDS011;57756;47.408;18.940;2022-08-05T00:45:05;6.78;;;2.10;;
70335;SDS011;57756;47.408;18.940;2022-08-05T00:47:33;4.07;;;2.00;;
70335;SDS011;57756;47.408;18.940;2022-08-05T00:49:58;3.73;;;2.10;;
70335;SDS011;57756;47.408;18.940;2022-08-05T00:52:24;7.93;;;2.15;;
70335;SDS011;57756;47.408;18.940;2022-08-05T00:54:50;7.00;;;2.20;;
70335;SDS011;57756;47.408;18.940;2022-08-05T00:57:15;4.72;;;2.10;;
70335;SDS011;57756;47.408;18.940;2022-08-05T00:59:41;3.90;;;2.30;;
70335;SDS011;57756;47.408;18.940;2022-08-05T01:02:07;3.85;;;2.10;;
70335;SDS011;57756;47.408;18.940;2022-08-05T01:04:32;4.90;;;2.30;;
70335;SDS011;57756;47.408;18.940;2022-08-05T01:06:58;5.05;;;2.10;;
70335;SDS011;57756;47.408;18.940;2022-08-05T01:09:24;3.97;;;1.90;;
70335;SDS011;57756;47.408;18.940;2022-08-05T01:11:49;3.50;;;1.93;;
70335;SDS011;57756;47.408;18.940;2022-08-05T01:17:07;5.03;;;2.10;;
70335;SDS011;57756;47.408;18.940;2022-08-05T01:19:42;4.55;;;1.90;;
70335;SDS011;57756;47.408;18.940;2022-08-05T01:22:28;4.53;;;2.20;;
70335;SDS011;57756;47.408;18.940;2022-08-05T01:25:04;7.63;;;2.23;;
70335;SDS011;57756;47.408;18.940;2022-08-05T01:30:58;5.88;;;2.00;;
70335;SDS011;57756;47.408;18.940;2022-08-05T01:33:36;3.85;;;2.13;;
70335;SDS011;57756;47.408;18.940;2022-08-05T01:36:14;3.72;;;1.90;;
70335;SDS011;57756;47.408;18.940;2022-08-05T01:38:43;5.43;;;2.23;;
70335;SDS011;57756;47.408;18.940;2022-08-05T01:41:11;4.43;;;1.77;;
70335;SDS011;57756;47.408;18.940;2022-08-05T01:43:39;5.47;;;2.10;;
70335;SDS011;57756;47.408;18.940;2022-08-05T01:46:05;5.18;;;1.95;;
70335;SDS011;57756;47.408;18.940;2022-08-05T01:48:32;4.43;;;1.85;;
70335;SDS011;57756;47.408;18.940;2022-08-05T01:50:59;5.17;;;2.30;;
70335;SDS011;57756;47.408;18.940;2022-08-05T01:53:27;5.15;;;2.47;;
70335;SDS011;57756;47.408;18.940;2022-08-05T01:55:54;5.88;;;2.63;;
70335;SDS011;57756;47.408;18.940;2022-08-05T01:58:22;7.07;;;2.40;;
70335;SDS011;57756;47.408;18.940;2022-08-05T02:00:49;6.53;;;2.40;;
70335;SDS011;57756;47.408;18.940;2022-08-05T02:05:45;10.23;;;2.90;;
70335;SDS011;57756;47.408;18.940;2022-08-05T02:08:12;20.83;;;3.75;;
70335;SDS011;57756;47.408;18.940;2022-08-05T02:10:38;17.40;;;3.30;;
70335;SDS011;57756;47.408;18.940;2022-08-05T02:13:09;9.85;;;2.75;;
70335;SDS011;57756;47.408;18.940;2022-08-05T02:15:43;25.90;;;3.25;;
70335;SDS011;57756;47.408;18.940;2022-08-05T02:18:19;19.92;;;3.25;;
70335;SDS011;57756;47.408;18.940;2022-08-05T02:20:51;13.88;;;2.85;;
70335;SDS011;57756;47.408;18.940;2022-08-05T02:23:21;18.93;;;3.07;;
70335;SDS011;57756;47.408;18.940;2022-08-05T02:25:50;8.10;;;2.60;;
70335;SDS011;57756;47.408;18.940;2022-08-05T02:28:22;15.07;;;3.05;;
70335;SDS011;57756;47.408;18.940;2022-08-05T02:30:54;8.07;;;2.88;;
70335;SDS011;57756;47.408;18.940;2022-08-05T02:33:22;12.38;;;3.05;;
70335;SDS011;57756;47.408;18.940;2022-08-05T02:35:50;6.90;;;2.87;;
70335;SDS011;57756;47.408;18.940;2022-08-05T02:38:19;6.63;;;2.60;;
70335;SDS011;57756;47.408;18.940;2022-08-05T02:40:45;5.70;;;2.60;;
70335;SDS011;57756;47.408;18.940;2022-08-05T02:43:11;5.27;;;2.60;;
70335;SDS011;57756;47.408;18.940;2022-08-05T02:45:42;5.65;;;2.55;;
70335;SDS011;57756;47.408;18.940;2022-08-05T02:48:08;8.32;;;2.17;;
70335;SDS011;57756;47.408;18.940;2022-08-05T02:50:35;5.05;;;2.15;;
70335;SDS011;57756;47.408;18.940;2022-08-05T02:53:02;5.35;;;2.40;;
70335;SDS011;57756;47.408;18.940;2022-08-05T02:55:29;5.17;;;1.97;;
70335;SDS011;57756;47.408;18.940;2022-08-05T02:57:56;5.18;;;2.20;;
70335;SDS011;57756;47.408;18.940;2022-08-05T03:00:23;5.20;;;2.20;;
70335;SDS011;57756;47.408;18.940;2022-08-05T03:02:49;3.30;;;1.80;;
70335;SDS011;57756;47.408;18.940;2022-08-05T03:05:17;7.37;;;2.40;;
70335;SDS011;57756;47.408;18.940;2022-08-05T03:07:43;4.32;;;2.13;;
70335;SDS011;57756;47.408;18.940;2022-08-05T03:10:09;6.22;;;2.03;;
70335;SDS011;57756;47.408;18.940;2022-08-05T03:12:36;3.73;;;2.23;;
70335;SDS011;57756;47.408;18.940;2022-08-05T03:15:06;4.03;;;2.10;;
70335;SDS011;57756;47.408;18.940;2022-08-05T03:17:33;6.63;;;2.45;;
70335;SDS011;57756;47.408;18.940;2022-08-05T03:20:00;5.55;;;2.35;;
70335;SDS011;57756;47.408;18.940;2022-08-05T03:22:26;7.47;;;2.87;;
70335;SDS011;57756;47.408;18.940;2022-08-05T03:24:52;16.70;;;4.07;;
70335;SDS011;57756;47.408;18.940;2022-08-05T03:27:19;22.02;;;3.70;;
70335;SDS011;57756;47.408;18.940;2022-08-05T03:29:44;16.98;;;4.60;;
70335;SDS011;57756;47.408;18.940;2022-08-05T03:32:11;18.97;;;4.20;;
70335;SDS011;57756;47.408;18.940;2022-08-05T03:34:39;20.65;;;4.93;;
70335;SDS011;57756;47.408;18.940;2022-08-05T03:37:05;24.25;;;4.82;;
70335;SDS011;57756;47.408;18.940;2022-08-05T03:39:31;19.50;;;4.07;;
70335;SDS011;57756;47.408;18.940;2022-08-05T03:41:57;12.60;;;3.47;;
70335;SDS011;57756;47.408;18.940;2022-08-05T03:44:23;19.07;;;4.20;;
70335;SDS011;57756;47.408;18.940;2022-08-05T03:46:49;14.73;;;3.30;;
70335;SDS011;57756;47.408;18.940;2022-08-05T03:49:14;7.70;;;3.10;;
70335;SDS011;57756;47.408;18.940;2022-08-05T03:51:54;8.38;;;3.03;;
70335;SDS011;57756;47.408;18.940;2022-08-05T03:54:38;6.93;;;2.70;;
70335;SDS011;57756;47.408;18.940;2022-08-05T03:57:08;7.07;;;2.80;;
70335;SDS011;57756;47.408;18.940;2022-08-05T04:00:18;6.90;;;2.83;;
70335;SDS011;57756;47.408;18.940;2022-08-05T04:02:27;5.40;;;2.60;;
70335;SDS011;57756;47.408;18.940;2022-08-05T04:04:56;7.10;;;2.83;;
70335;SDS011;57756;47.408;18.940;2022-08-05T04:07:22;4.20;;;2.30;;
70335;SDS011;57756;47.408;18.940;2022-08-05T04:09:48;7.23;;;2.40;;
70335;SDS011;57756;47.408;18.940;2022-08-05T04:12:14;5.25;;;2.60;;
70335;SDS011;57756;47.408;18.940;2022-08-05T04:14:40;8.57;;;2.33;;
70335;SDS011;57756;47.408;18.940;2022-08-05T04:17:07;16.42;;;3.75;;
70335;SDS011;57756;47.408;18.940;2022-08-05T04:19:39;21.88;;;4.50;;
70335;SDS011;57756;47.408;18.940;2022-08-05T04:22:09;13.97;;;3.67;;
70335;SDS011;57756;47.408;18.940;2022-08-05T04:24:36;14.73;;;4.18;;
70335;SDS011;57756;47.408;18.940;2022-08-05T04:27:02;10.35;;;3.13;;
70335;SDS011;57756;47.408;18.940;2022-08-05T04:29:28;12.18;;;3.15;;
70335;SDS011;57756;47.408;18.940;2022-08-05T04:31:54;15.17;;;2.73;;
70335;SDS011;57756;47.408;18.940;2022-08-05T04:34:19;9.57;;;2.60;;
70335;SDS011;57756;47.408;18.940;2022-08-05T04:36:44;12.70;;;3.20;;
70335;SDS011;57756;47.408;18.940;2022-08-05T04:39:10;7.03;;;2.80;;
70335;SDS011;57756;47.408;18.940;2022-08-05T04:41:35;7.80;;;3.10;;
70335;SDS011;57756;47.408;18.940;2022-08-05T04:44:01;5.60;;;2.77;;
70335;SDS011;57756;47.408;18.940;2022-08-05T04:46:27;5.05;;;2.70;;
70335;SDS011;57756;47.408;18.940;2022-08-05T04:48:52;9.70;;;2.50;;
70335;SDS011;57756;47.408;18.940;2022-08-05T04:51:17;4.90;;;2.50;;
70335;SDS011;57756;47.408;18.940;2022-08-05T04:53:43;7.43;;;2.40;;
70335;SDS011;57756;47.408;18.940;2022-08-05T04:56:08;6.40;;;2.63;;
70335;SDS011;57756;47.408;18.940;2022-08-05T04:58:34;16.27;;;4.20;;
70335;SDS011;57756;47.408;18.940;2022-08-05T05:01:00;6.10;;;2.80;;
70335;SDS011;57756;47.408;18.940;2022-08-05T05:03:25;11.82;;;3.13;;
70335;SDS011;57756;47.408;18.940;2022-08-05T05:05:51;19.47;;;4.30;;
70335;SDS011;57756;47.408;18.940;2022-08-05T05:08:16;5.50;;;2.70;;
70335;SDS011;57756;47.408;18.940;2022-08-05T05:10:43;7.25;;;2.45;;
70335;SDS011;57756;47.408;18.940;2022-08-05T05:13:12;6.23;;;2.40;;
70335;SDS011;57756;47.408;18.940;2022-08-05T05:15:39;9.10;;;2.72;;
70335;SDS011;57756;47.408;18.940;2022-08-05T05:18:06;6.85;;;2.60;;
70335;SDS011;57756;47.408;18.940;2022-08-05T05:20:32;10.57;;;3.53;;
70335;SDS011;57756;47.408;18.940;2022-08-05T05:22:57;8.37;;;3.00;;
70335;SDS011;57756;47.408;18.940;2022-08-05T05:25:24;5.32;;;2.65;;
70335;SDS011;57756;47.408;18.940;2022-08-05T05:27:50;7.38;;;2.40;;
70335;SDS011;57756;47.408;18.940;2022-08-05T05:30:19;5.10;;;2.40;;
70335;SDS011;57756;47.408;18.940;2022-08-05T05:32:46;6.07;;;2.45;;
70335;SDS011;57756;47.408;18.940;2022-08-05T05:35:11;5.37;;;2.47;;
70335;SDS011;57756;47.408;18.940;2022-08-05T05:37:50;8.27;;;2.70;;
70335;SDS011;57756;47.408;18.940;2022-08-05T05:40:20;5.07;;;2.55;;
70335;SDS011;57756;47.408;18.940;2022-08-05T05:42:47;5.53;;;2.42;;
70335;SDS011;57756;47.408;18.940;2022-08-05T05:45:13;4.50;;;2.47;;
70335;SDS011;57756;47.408;18.940;2022-08-05T05:47:40;8.38;;;2.80;;
70335;SDS011;57756;47.408;18.940;2022-08-05T05:50:07;5.30;;;2.37;;
70335;SDS011;57756;47.408;18.940;2022-08-05T05:52:33;6.57;;;2.45;;
70335;SDS011;57756;47.408;18.940;2022-08-05T05:55:00;8.15;;;2.72;;
70335;SDS011;57756;47.408;18.940;2022-08-05T05:57:26;6.70;;;2.50;;
70335;SDS011;57756;47.408;18.940;2022-08-05T05:59:51;7.30;;;2.53;;
70335;SDS011;57756;47.408;18.940;2022-08-05T06:02:17;7.77;;;2.90;;
70335;SDS011;57756;47.408;18.940;2022-08-05T06:04:42;8.37;;;2.80;;
70335;SDS011;57756;47.408;18.940;2022-08-05T06:07:08;7.20;;;3.47;;
70335;SDS011;57756;47.408;18.940;2022-08-05T06:09:33;6.15;;;2.65;;
70335;SDS011;57756;47.408;18.940;2022-08-05T06:11:59;5.20;;;2.50;;
70335;SDS011;57756;47.408;18.940;2022-08-05T06:14:24;11.10;;;2.93;;
70335;SDS011;57756;47.408;18.940;2022-08-05T06:16:50;5.35;;;2.50;;
70335;SDS011;57756;47.408;18.940;2022-08-05T06:19:15;7.20;;;2.60;;
70335;SDS011;57756;47.408;18.940;2022-08-05T06:21:41;8.40;;;2.83;;
70335;SDS011;57756;47.408;18.940;2022-08-05T06:24:07;8.75;;;2.38;;
70335;SDS011;57756;47.408;18.940;2022-08-05T06:26:33;6.40;;;2.50;;
70335;SDS011;57756;47.408;18.940;2022-08-05T06:28:58;5.73;;;2.17;;
70335;SDS011;57756;47.408;18.940;2022-08-05T06:31:24;5.47;;;2.43;;
70335;SDS011;57756;47.408;18.940;2022-08-05T06:33:49;4.68;;;2.40;;
70335;SDS011;57756;47.408;18.940;2022-08-05T06:36:15;5.07;;;2.47;;
70335;SDS011;57756;47.408;18.940;2022-08-05T06:38:40;6.70;;;2.10;;
70335;SDS011;57756;47.408;18.940;2022-08-05T06:41:06;6.37;;;2.30;;
70335;SDS011;57756;47.408;18.940;2022-08-05T06:43:32;6.90;;;2.47;;
70335;SDS011;57756;47.408;18.940;2022-08-05T06:45:57;3.30;;;2.00;;
70335;SDS011;57756;47.408;18.940;2022-08-05T06:48:23;5.27;;;2.40;;
70335;SDS011;57756;47.408;18.940;2022-08-05T06:50:48;10.20;;;2.40;;
70335;SDS011;57756;47.408;18.940;2022-08-05T06:53:14;7.77;;;2.67;;
70335;SDS011;57756;47.408;18.940;2022-08-05T06:55:40;6.93;;;2.23;;
70335;SDS011;57756;47.408;18.940;2022-08-05T06:58:06;8.57;;;2.55;;
70335;SDS011;57756;47.408;18.940;2022-08-05T07:00:31;4.28;;;2.58;;
70335;SDS011;57756;47.408;18.940;2022-08-05T07:02:57;8.17;;;2.37;;
70335;SDS011;57756;47.408;18.940;2022-08-05T07:05:23;8.05;;;2.42;;
70335;SDS011;57756;47.408;18.940;2022-08-05T07:07:49;5.38;;;2.67;;
70335;SDS011;57756;47.408;18.940;2022-08-05T07:10:15;6.33;;;2.30;;
70335;SDS011;57756;47.408;18.940;2022-08-05T07:12:44;6.05;;;2.63;;
70335;SDS011;57756;47.408;18.940;2022-08-05T07:15:28;9.85;;;2.63;;
70335;SDS011;57756;47.408;18.940;2022-08-05T07:18:12;6.23;;;2.27;;
70335;SDS011;57756;47.408;18.940;2022-08-05T07:20:38;7.97;;;2.67;;
70335;SDS011;57756;47.408;18.940;2022-08-05T07:23:03;5.73;;;2.60;;
70335;SDS011;57756;47.408;18.940;2022-08-05T07:25:29;8.48;;;2.80;;
70335;SDS011;57756;47.408;18.940;2022-08-05T07:27:55;4.57;;;2.10;;
70335;SDS011;57756;47.408;18.940;2022-08-05T07:30:20;5.70;;;2.38;;
70335;SDS011;57756;47.408;18.940;2022-08-05T07:32:46;6.20;;;2.73;;
70335;SDS011;57756;47.408;18.940;2022-08-05T07:35:12;8.27;;;2.70;;
70335;SDS011;57756;47.408;18.940;2022-08-05T07:37:38;5.77;;;2.83;;
70335;SDS011;57756;47.408;18.940;2022-08-05T07:40:05;5.75;;;2.58;;
70335;SDS011;57756;47.408;18.940;2022-08-05T07:42:31;7.90;;;2.78;;
70335;SDS011;57756;47.408;18.940;2022-08-05T07:44:57;6.97;;;2.45;;
70335;SDS011;57756;47.408;18.940;2022-08-05T07:47:23;8.43;;;2.80;;
70335;SDS011;57756;47.408;18.940;2022-08-05T07:49:48;9.13;;;2.67;;
70335;SDS011;57756;47.408;18.940;2022-08-05T07:52:19;6.47;;;2.47;;
70335;SDS011;57756;47.408;18.940;2022-08-05T07:54:45;6.97;;;2.63;;
70335;SDS011;57756;47.408;18.940;2022-08-05T07:57:11;6.05;;;2.45;;
70335;SDS011;57756;47.408;18.940;2022-08-05T07:59:37;7.95;;;2.55;;
70335;SDS011;57756;47.408;18.940;2022-08-05T08:02:03;6.43;;;2.70;;
70335;SDS011;57756;47.408;18.940;2022-08-05T08:04:29;4.97;;;2.58;;
70335;SDS011;57756;47.408;18.940;2022-08-05T08:06:54;4.80;;;2.33;;
70335;SDS011;57756;47.408;18.940;2022-08-05T08:09:20;3.78;;;2.60;;
70335;SDS011;57756;47.408;18.940;2022-08-05T08:11:48;6.18;;;3.00;;
70335;SDS011;57756;47.408;18.940;2022-08-05T08:14:13;7.53;;;2.70;;
70335;SDS011;57756;47.408;18.940;2022-08-05T08:16:39;7.67;;;2.70;;
70335;SDS011;57756;47.408;18.940;2022-08-05T08:19:04;5.38;;;2.25;;
70335;SDS011;57756;47.408;18.940;2022-08-05T08:21:31;5.82;;;2.58;;
70335;SDS011;57756;47.408;18.940;2022-08-05T08:23:56;5.33;;;2.50;;
70335;SDS011;57756;47.408;18.940;2022-08-05T08:26:22;7.53;;;2.67;;
70335;SDS011;57756;47.408;18.940;2022-08-05T08:28:47;11.25;;;3.22;;
70335;SDS011;57756;47.408;18.940;2022-08-05T08:31:13;4.53;;;2.53;;
70335;SDS011;57756;47.408;18.940;2022-08-05T08:33:38;5.93;;;2.90;;
70335;SDS011;57756;47.408;18.940;2022-08-05T08:36:06;6.03;;;2.60;;
70335;SDS011;57756;47.408;18.940;2022-08-05T08:38:32;5.88;;;2.55;;
70335;SDS011;57756;47.408;18.940;2022-08-05T08:40:58;8.80;;;2.50;;
70335;SDS011;57756;47.408;18.940;2022-08-05T08:43:25;10.57;;;3.10;;
70335;SDS011;57756;47.408;18.940;2022-08-05T08:45:51;6.15;;;2.90;;
70335;SDS011;57756;47.408;18.940;2022-08-05T08:48:18;6.83;;;3.00;;
70335;SDS011;57756;47.408;18.940;2022-08-05T08:50:45;8.00;;;2.92;;
70335;SDS011;57756;47.408;18.940;2022-08-05T08:53:12;6.13;;;2.40;;
70335;SDS011;57756;47.408;18.940;2022-08-05T08:55:40;4.78;;;2.53;;
70335;SDS011;57756;47.408;18.940;2022-08-05T08:58:06;4.53;;;2.80;;
70335;SDS011;57756;47.408;18.940;2022-08-05T09:00:34;5.05;;;2.70;;
70335;SDS011;57756;47.408;18.940;2022-08-05T09:03:00;7.82;;;3.03;;
70335;SDS011;57756;47.408;18.940;2022-08-05T09:05:28;7.00;;;2.40;;
70335;SDS011;57756;47.408;18.940;2022-08-05T09:07:54;4.80;;;2.90;;
70335;SDS011;57756;47.408;18.940;2022-08-05T09:10:20;5.93;;;2.23;;
70335;SDS011;57756;47.408;18.940;2022-08-05T09:12:45;5.03;;;2.45;;
70335;SDS011;57756;47.408;18.940;2022-08-05T09:15:12;7.25;;;2.58;;
70335;SDS011;57756;47.408;18.940;2022-08-05T09:17:38;7.27;;;2.70;;
70335;SDS011;57756;47.408;18.940;2022-08-05T09:20:05;4.47;;;2.78;;
70335;SDS011;57756;47.408;18.940;2022-08-05T09:23:05;4.80;;;2.50;;
70335;SDS011;57756;47.408;18.940;2022-08-05T09:25:32;6.20;;;2.70;;
70335;SDS011;57756;47.408;18.940;2022-08-05T09:28:07;6.25;;;2.90;;
70335;SDS011;57756;47.408;18.940;2022-08-05T09:30:35;6.13;;;2.47;;
70335;SDS011;57756;47.408;18.940;2022-08-05T09:33:01;5.65;;;2.83;;
70335;SDS011;57756;47.408;18.940;2022-08-05T09:35:27;5.15;;;2.78;;
70335;SDS011;57756;47.408;18.940;2022-08-05T09:37:53;6.30;;;2.60;;
70335;SDS011;57756;47.408;18.940;2022-08-05T09:40:35;8.88;;;2.90;;
70335;SDS011;57756;47.408;18.940;2022-08-05T09:43:05;9.43;;;3.03;;
70335;SDS011;57756;47.408;18.940;2022-08-05T09:45:38;7.27;;;2.53;;
70335;SDS011;57756;47.408;18.940;2022-08-05T09:48:17;4.55;;;2.85;;
70335;SDS011;57756;47.408;18.940;2022-08-05T09:50:47;6.45;;;2.83;;
70335;SDS011;57756;47.408;18.940;2022-08-05T09:53:14;6.40;;;2.72;;
70335;SDS011;57756;47.408;18.940;2022-08-05T09:55:40;4.77;;;2.73;;
70335;SDS011;57756;47.408;18.940;2022-08-05T09:58:09;6.47;;;2.50;;
70335;SDS011;57756;47.408;18.940;2022-08-05T10:00:36;5.00;;;2.63;;
70335;SDS011;57756;47.408;18.940;2022-08-05T10:03:07;4.72;;;2.25;;
70335;SDS011;57756;47.408;18.940;2022-08-05T10:05:33;4.90;;;2.87;;
70335;SDS011;57756;47.408;18.940;2022-08-05T10:08:00;5.40;;;3.53;;
70335;SDS011;57756;47.408;18.940;2022-08-05T10:13:01;4.70;;;2.92;;
70335;SDS011;57756;47.408;18.940;2022-08-05T10:15:28;6.85;;;2.97;;
70335;SDS011;57756;47.408;18.940;2022-08-05T10:20:40;5.47;;;2.90;;
70335;SDS011;57756;47.408;18.940;2022-08-05T10:23:09;4.82;;;3.13;;
70335;SDS011;57756;47.408;18.940;2022-08-05T10:25:36;6.65;;;3.30;;
70335;SDS011;57756;47.408;18.940;2022-08-05T10:28:02;5.80;;;3.10;;
70335;SDS011;57756;47.408;18.940;2022-08-05T10:30:27;4.38;;;3.15;;
70335;SDS011;57756;47.408;18.940;2022-08-05T10:32:55;6.22;;;3.53;;
70335;SDS011;57756;47.408;18.940;2022-08-05T10:35:23;9.43;;;3.20;;
70335;SDS011;57756;47.408;18.940;2022-08-05T10:37:48;3.70;;;2.58;;
70335;SDS011;57756;47.408;18.940;2022-08-05T10:45:56;5.28;;;2.75;;
70335;SDS011;57756;47.408;18.940;2022-08-05T10:48:37;5.65;;;2.90;;
70335;SDS011;57756;47.408;18.940;2022-08-05T10:51:21;5.13;;;2.77;;
70335;SDS011;57756;47.408;18.940;2022-08-05T10:56:22;3.83;;;2.97;;
70335;SDS011;57756;47.408;18.940;2022-08-05T11:01:17;6.43;;;2.60;;
70335;SDS011;57756;47.408;18.940;2022-08-05T11:07:02;3.80;;;2.75;;
70335;SDS011;57756;47.408;18.940;2022-08-05T11:09:43;3.43;;;2.63;;
70335;SDS011;57756;47.408;18.940;2022-08-05T11:18:26;4.53;;;2.60;;
70335;SDS011;57756;47.408;18.940;2022-08-05T11:20:37;5.90;;;2.45;;
70335;SDS011;57756;47.408;18.940;2022-08-05T11:26:03;4.65;;;2.72;;
70335;SDS011;57756;47.408;18.940;2022-08-05T11:33:27;6.55;;;2.72;;
70335;SDS011;57756;47.408;18.940;2022-08-05T11:35:56;4.33;;;2.87;;
70335;SDS011;57756;47.408;18.940;2022-08-05T11:41:14;3.63;;;3.10;;
70335;SDS011;57756;47.408;18.940;2022-08-05T11:43:58;3.53;;;2.67;;
70335;SDS011;57756;47.408;18.940;2022-08-05T11:49:04;3.97;;;2.50;;
70335;SDS011;57756;47.408;18.940;2022-08-05T11:51:32;8.20;;;2.65;;
70335;SDS011;57756;47.408;18.940;2022-08-05T11:53:59;5.32;;;3.17;;
70335;SDS011;57756;47.408;18.940;2022-08-05T11:56:26;5.03;;;2.83;;
70335;SDS011;57756;47.408;18.940;2022-08-05T11:59:07;3.65;;;2.60;;
70335;SDS011;57756;47.408;18.940;2022-08-05T12:01:37;5.63;;;3.00;;
70335;SDS011;57756;47.408;18.940;2022-08-05T12:04:16;5.68;;;2.25;;
70335;SDS011;57756;47.408;18.940;2022-08-05T12:06:42;3.95;;;2.47;;
70335;SDS011;57756;47.408;18.940;2022-08-05T12:09:07;4.60;;;2.73;;
70335;SDS011;57756;47.408;18.940;2022-08-05T12:11:33;4.28;;;3.03;;
70335;SDS011;57756;47.408;18.940;2022-08-05T12:13:59;5.00;;;3.10;;
70335;SDS011;57756;47.408;18.940;2022-08-05T12:16:27;3.58;;;2.90;;
70335;SDS011;57756;47.408;18.940;2022-08-05T12:18:58;5.73;;;2.50;;
70335;SDS011;57756;47.408;18.940;2022-08-05T12:21:24;5.85;;;3.30;;
70335;SDS011;57756;47.408;18.940;2022-08-05T12:23:53;3.92;;;2.97;;
70335;SDS011;57756;47.408;18.940;2022-08-05T12:26:23;6.70;;;2.90;;
70335;SDS011;57756;47.408;18.940;2022-08-05T12:28:54;5.38;;;2.63;;
70335;SDS011;57756;47.408;18.940;2022-08-05T12:31:19;4.07;;;2.50;;
70335;SDS011;57756;47.408;18.940;2022-08-05T12:33:45;3.93;;;2.93;;
70335;SDS011;57756;47.408;18.940;2022-08-05T12:36:10;3.97;;;2.40;;
70335;SDS011;57756;47.408;18.940;2022-08-05T12:38:36;7.97;;;2.45;;
70335;SDS011;57756;47.408;18.940;2022-08-05T12:41:06;5.15;;;2.50;;
70335;SDS011;57756;47.408;18.940;2022-08-05T12:43:33;6.60;;;2.53;;
70335;SDS011;57756;47.408;18.940;2022-08-05T12:45:58;3.10;;;2.40;;
70335;SDS011;57756;47.408;18.940;2022-08-05T12:48:24;3.57;;;2.50;;
70335;SDS011;57756;47.408;18.940;2022-08-05T12:51:12;7.78;;;2.80;;
70335;SDS011;57756;47.408;18.940;2022-08-05T12:53:44;5.15;;;2.70;;
70335;SDS011;57756;47.408;18.940;2022-08-05T12:56:17;7.40;;;3.00;;
70335;SDS011;57756;47.408;18.940;2022-08-05T13:01:35;5.18;;;2.50;;
70335;SDS011;57756;47.408;18.940;2022-08-05T13:04:04;5.90;;;2.40;;
70335;SDS011;57756;47.408;18.940;2022-08-05T13:06:29;5.40;;;2.60;;
70335;SDS011;57756;47.408;18.940;2022-08-05T13:08:55;5.37;;;3.13;;
70335;SDS011;57756;47.408;18.940;2022-08-05T13:11:27;5.55;;;3.03;;
70335;SDS011;57756;47.408;18.940;2022-08-05T13:13:56;5.23;;;2.30;;
70335;SDS011;57756;47.408;18.940;2022-08-05T13:16:22;5.00;;;2.20;;
70335;SDS011;57756;47.408;18.940;2022-08-05T13:18:52;7.03;;;2.73;;
70335;SDS011;57756;47.408;18.940;2022-08-05T13:21:18;8.97;;;3.30;;
70335;SDS011;57756;47.408;18.940;2022-08-05T13:23:44;4.32;;;2.55;;
70335;SDS011;57756;47.408;18.940;2022-08-05T13:26:09;3.60;;;2.30;;
70335;SDS011;57756;47.408;18.940;2022-08-05T13:28:35;6.87;;;2.80;;
70335;SDS011;57756;47.408;18.940;2022-08-05T13:31:00;6.25;;;2.88;;
70335;SDS011;57756;47.408;18.940;2022-08-05T13:33:26;8.50;;;2.53;;
70335;SDS011;57756;47.408;18.940;2022-08-05T13:35:51;3.63;;;2.40;;
70335;SDS011;57756;47.408;18.940;2022-08-05T13:38:17;4.87;;;2.77;;
70335;SDS011;57756;47.408;18.940;2022-08-05T13:40:43;4.28;;;2.97;;
70335;SDS011;57756;47.408;18.940;2022-08-05T13:43:10;4.53;;;2.20;;
70335;SDS011;57756;47.408;18.940;2022-08-05T13:45:36;4.70;;;2.60;;
70335;SDS011;57756;47.408;18.940;2022-08-05T13:48:01;4.70;;;2.77;;
70335;SDS011;57756;47.408;18.940;2022-08-05T13:50:27;4.00;;;2.50;;
70335;SDS011;57756;47.408;18.940;2022-08-05T13:52:52;5.23;;;2.20;;
70335;SDS011;57756;47.408;18.940;2022-08-05T13:55:18;2.80;;;2.07;;
70335;SDS011;57756;47.408;18.940;2022-08-05T13:57:43;4.00;;;2.63;;
70335;SDS011;57756;47.408;18.940;2022-08-05T14:00:09;4.07;;;2.70;;
70335;SDS011;57756;47.408;18.940;2022-08-05T14:02:35;4.22;;;2.50;;
70335;SDS011;57756;47.408;18.940;2022-08-05T14:05:00;4.40;;;2.90;;
70335;SDS011;57756;47.408;18.940;2022-08-05T14:07:36;5.28;;;2.78;;
70335;SDS011;57756;47.408;18.940;2022-08-05T14:10:07;4.95;;;3.03;;
70335;SDS011;57756;47.408;18.940;2022-08-05T14:12:34;5.53;;;2.90;;
70335;SDS011;57756;47.408;18.940;2022-08-05T14:15:00;10.20;;;3.20;;
70335;SDS011;57756;47.408;18.940;2022-08-05T14:17:26;5.80;;;2.70;;
70335;SDS011;57756;47.408;18.940;2022-08-05T14:19:52;5.40;;;2.70;;
70335;SDS011;57756;47.408;18.940;2022-08-05T14:22:18;4.85;;;2.47;;
70335;SDS011;57756;47.408;18.940;2022-08-05T14:24:44;4.37;;;3.13;;
70335;SDS011;57756;47.408;18.940;2022-08-05T14:27:09;5.20;;;3.08;;
70335;SDS011;57756;47.408;18.940;2022-08-05T14:29:35;6.33;;;2.70;;
70335;SDS011;57756;47.408;18.940;2022-08-05T14:32:00;5.43;;;2.90;;
70335;SDS011;57756;47.408;18.940;2022-08-05T14:34:26;5.07;;;2.90;;
70335;SDS011;57756;47.408;18.940;2022-08-05T14:36:51;7.23;;;3.17;;
70335;SDS011;57756;47.408;18.940;2022-08-05T14:39:17;5.20;;;2.87;;
70335;SDS011;57756;47.408;18.940;2022-08-05T14:41:42;4.00;;;2.97;;
70335;SDS011;57756;47.408;18.940;2022-08-05T14:44:08;6.53;;;3.00;;
70335;SDS011;57756;47.408;18.940;2022-08-05T14:46:34;4.68;;;3.10;;
70335;SDS011;57756;47.408;18.940;2022-08-05T14:49:00;4.78;;;2.45;;
70335;SDS011;57756;47.408;18.940;2022-08-05T14:51:27;4.80;;;2.93;;
70335;SDS011;57756;47.408;18.940;2022-08-05T14:53:52;6.70;;;2.53;;
70335;SDS011;57756;47.408;18.940;2022-08-05T14:56:18;3.55;;;2.45;;
70335;SDS011;57756;47.408;18.940;2022-08-05T14:58:44;4.43;;;2.60;;
70335;SDS011;57756;47.408;18.940;2022-08-05T15:01:09;4.37;;;2.67;;
70335;SDS011;57756;47.408;18.940;2022-08-05T15:03:35;8.38;;;2.90;;
70335;SDS011;57756;47.408;18.940;2022-08-05T15:06:01;6.07;;;2.80;;
70335;SDS011;57756;47.408;18.940;2022-08-05T15:08:27;5.72;;;2.85;;
70335;SDS011;57756;47.408;18.940;2022-08-05T15:10:53;4.23;;;2.67;;
70335;SDS011;57756;47.408;18.940;2022-08-05T15:13:18;4.43;;;2.75;;
70335;SDS011;57756;47.408;18.940;2022-08-05T15:15:44;6.73;;;2.87;;
70335;SDS011;57756;47.408;18.940;2022-08-05T15:18:09;5.50;;;2.70;;
70335;SDS011;57756;47.408;18.940;2022-08-05T15:20:35;5.65;;;2.17;;
70335;SDS011;57756;47.408;18.940;2022-08-05T15:23:04;4.60;;;2.73;;
70335;SDS011;57756;47.408;18.940;2022-08-05T15:25:31;4.95;;;2.47;;